Airfield :
LOGIN :

Register | Disclaimer

   EN    FR    IT 

 










Legend :    VFR   Marginal VFR   IFR   Intensive IFR   Very Intensive IFR
Visi :
Ceiling :
>= 8 km
>= 3000ft
5 to 8 km
1000 to 3000 ft
1500m to 5 km
500 to 1000 ft
800 to 1500m
200 to 500 ft
< 800m
< 200 ft
Symbols :   Thunderstorms  Fog  Heavy snow  Heavy precipitations  Wind > 20 kt
SIGMETs :     Misc.  Thunderstorms  Icing  Turbulence  Mountain Waves  Volcanic Ashes






- Airport Elevation : 49 ft
- IATA code : GLZ


EHGR - Gilze-Rijen Airbase

CURRENT METAR :
  • 011555Z AUTO 26013KT 9999 OVC037 08/04 Q1020 BLU

EXPIRED METARs :
  • 011540Z AUTO 26014G24KT 220V290 9999 SCT032 BKN038 BKN046 08/04 Q1020 BLU
  • 011525Z AUTO 26015G25KT 240V300 9999 FEW023 BKN033 OVC046 08/04 Q1020 BLU TEMPO 26017G30KT SCT022 BKN030 BKN035
  • 011503Z AUTO 27013G25KT 9999 FEW025 BKN032 BKN040 08/04 Q1019 BLU TEMPO 26017G30KT SCT022 BKN030 BKN035
  • 011455Z AUTO 27014G25KT 240V300 9999 FEW022 BKN028 OVC031 08/04 Q1019 BLU TEMPO 26017G30KT
  • 011435Z AUTO 27014G24KT 9999 SCT023 OVC026 08/04 Q1019 WHT TEMPO 26017G30KT
  • 011425Z AUTO 27016KT 240V310 9999 BKN022 OVC030 08/04 Q1019 WHT TEMPO 26017G30KT
  • 011355Z AUTO 27016G28KT 230V290 9999 SCT023 OVC026 09/04 Q1019 WHT TEMPO 26017G30KT
  • 011325Z AUTO 26014G26KT 240V300 9999 BKN024 BKN030 OVC035 09/04 Q1019 WHT TEMPO 26017G30KT

TAF TAF EHGR
Valid from the 01 at 14:00 until the 02 at 02:00 UTC


011320Z 0114/0202 27017G30KT 9999 BKN024
BECMG 0115/0117 27014KT
TEMPO 0118/0202 SCT012 BKN015
PROB30
TEMPO 0123/0202 4000 RA



MET'MAP, your aeronautical weather chart ! - Copyright ORBIFLY December 2007 - Disclaimer

ORBIFLY MET'MAP TEAM :

Programming & Development : Alexandra Zaïnal
Original concept : Baudouin d'Aumeries
Technical & hardware support : Manuel Goepfert
Assistance : Marc-Olivier Méhu




SOURCES & CREDITS :

   NOAA